Time;durP1;ratioP1;P1;durP2;ratioP2;P2;SDS_P1;SDS_P2;PMS_P1;PMS_P2;Temp;Humidity;BMP_temperature;BMP_pressure;BME280_temperature;BME280_humidity;BME280_pressure;Samples;Min_cycle;Max_cycle;Signal;HPM_P1;HPM_P2
2021/01/06 00:00:37;;;;;;;4.53;1.27;;;-2.40;99.90;;;;;;4992121;28;20615;-62
2021/01/06 00:03:04;;;;;;;1.63;1.03;;;-2.40;99.90;;;;;;4992049;28;20248;-65
2021/01/06 00:05:31;;;;;;;1.43;0.97;;;-2.30;99.90;;;;;;4991943;28;20229;-61
2021/01/06 00:07:58;;;;;;;4.40;1.37;;;-2.30;99.90;;;;;;4972646;28;20621;-62
2021/01/06 00:10:27;;;;;;;2.17;1.70;;;-2.30;99.90;;;;;;4983935;28;20590;-62
2021/01/06 00:12:54;;;;;;;1.60;1.30;;;-2.40;99.90;;;;;;4972620;28;20202;-62
2021/01/06 00:15:22;;;;;;;2.67;1.43;;;-2.40;99.90;;;;;;4972742;28;20241;-63
2021/01/06 00:17:49;;;;;;;2.20;1.30;;;-2.40;99.90;;;;;;4977293;28;20282;-63
2021/01/06 00:20:16;;;;;;;2.90;1.70;;;-2.50;99.90;;;;;;4985978;28;20282;-62
2021/01/06 00:22:44;;;;;;;0.70;0.70;;;-2.40;99.90;;;;;;4972357;28;20198;-62
2021/01/06 00:25:12;;;;;;;1.67;1.37;;;-2.40;99.90;;;;;;4984032;28;20280;-64
2021/01/06 00:27:39;;;;;;;1.90;1.40;;;-2.40;99.90;;;;;;4991082;28;20227;-62
2021/01/06 00:30:12;;;;;;;1.60;1.30;;;-2.40;99.90;;;;;;4991492;28;20719;-64
2021/01/06 00:32:38;;;;;;;2.33;1.33;;;-2.30;99.90;;;;;;4991220;28;20264;-64
2021/01/06 00:35:06;;;;;;;2.73;1.53;;;-2.40;99.90;;;;;;4991379;28;20221;-63
2021/01/06 00:37:33;;;;;;;2.07;1.40;;;-2.40;99.90;;;;;;4991357;28;20233;-62
2021/01/06 00:40:00;;;;;;;2.33;1.20;;;-2.50;99.90;;;;;;4991522;28;20320;-64
2021/01/06 00:42:27;;;;;;;2.03;1.60;;;-2.50;99.90;;;;;;4992941;28;20240;-62
2021/01/06 00:44:53;;;;;;;2.30;1.60;;;-2.60;99.90;;;;;;4993563;28;20724;-63
2021/01/06 00:47:20;;;;;;;1.93;1.50;;;-2.60;99.90;;;;;;4994572;28;20375;-63
2021/01/06 00:49:47;;;;;;;1.70;1.30;;;-2.60;99.90;;;;;;4995110;28;20182;-63
2021/01/06 00:52:13;;;;;;;2.60;1.77;;;-2.70;99.90;;;;;;4994914;28;20229;-62
2021/01/06 00:54:40;;;;;;;2.43;1.57;;;-2.70;99.90;;;;;;4993959;28;20368;-64
2021/01/06 00:57:08;;;;;;;2.50;1.70;;;-2.80;99.90;;;;;;4994196;28;20324;-61
2021/01/06 00:59:34;;;;;;;3.50;1.93;;;-2.90;99.90;;;;;;4994604;28;20284;-62
2021/01/06 01:02:00;;;;;;;2.17;1.70;;;-2.80;99.90;;;;;;4994912;28;20517;-64
2021/01/06 01:04:27;;;;;;;2.17;1.77;;;-2.80;99.90;;;;;;4994451;28;20343;-63
2021/01/06 01:06:53;;;;;;;2.03;1.70;;;-2.70;99.90;;;;;;4994103;28;20225;-62
2021/01/06 01:09:20;;;;;;;4.63;1.87;;;-2.70;99.90;;;;;;4994323;28;20225;-61
2021/01/06 01:11:46;;;;;;;2.40;1.87;;;-2.80;99.90;;;;;;4994261;28;20284;-61
2021/01/06 01:14:14;;;;;;;2.90;2.17;;;-2.80;99.90;;;;;;4994054;28;20214;-63
2021/01/06 01:16:42;;;;;;;3.37;2.00;;;-2.70;99.90;;;;;;4993619;28;20221;-61
2021/01/06 01:19:09;;;;;;;4.20;2.20;;;-2.50;99.90;;;;;;4994118;28;20636;-63
2021/01/06 01:21:35;;;;;;;2.13;1.00;;;-2.40;99.90;;;;;;4993120;28;20224;-63
2021/01/06 01:24:02;;;;;;;2.57;1.90;;;-2.30;99.90;;;;;;4993941;28;20205;-61
2021/01/06 01:26:28;;;;;;;4.63;1.93;;;-2.40;99.90;;;;;;4988866;28;20190;-62
2021/01/06 01:28:55;;;;;;;1.77;1.53;;;-2.50;99.90;;;;;;4993750;28;20272;-62
2021/01/06 01:31:30;;;;;;;2.80;2.07;;;-2.40;99.90;;;;;;4994022;28;20575;-63
2021/01/06 01:33:56;;;;;;;2.30;1.63;;;-2.30;99.90;;;;;;4994193;28;20244;-63
2021/01/06 01:36:23;;;;;;;3.30;2.00;;;-2.40;99.90;;;;;;4993640;28;20299;-63
2021/01/06 01:38:49;;;;;;;4.60;2.10;;;-2.40;99.90;;;;;;4994064;28;20190;-62
2021/01/06 01:41:22;;;;;;;3.90;2.10;;;-2.50;99.90;;;;;;4993691;28;20658;-62
2021/01/06 01:43:49;;;;;;;4.17;2.20;;;-2.50;99.90;;;;;;4993266;28;20198;-62
2021/01/06 01:46:40;;;;;;;3.37;2.17;;;-2.50;99.90;;;;;;4993248;28;20727;-62
2021/01/06 01:49:16;;;;;;;3.90;2.27;;;-2.60;99.90;;;;;;4993101;28;20586;-63
2021/01/06 01:51:48;;;;;;;4.63;2.60;;;-2.50;99.90;;;;;;4993597;28;20197;-62
2021/01/06 01:54:17;;;;;;;3.13;1.93;;;-2.60;99.90;;;;;;4992715;28;20224;-61
2021/01/06 01:56:48;;;;;;;3.43;2.30;;;-2.60;99.90;;;;;;4992716;28;20253;-62
2021/01/06 01:59:22;;;;;;;6.47;2.60;;;-2.60;99.90;;;;;;4992964;28;20273;-63
2021/01/06 02:01:51;;;;;;;3.70;2.27;;;-2.60;99.90;;;;;;4993158;28;20671;-63
2021/01/06 02:04:24;;;;;;;3.83;2.70;;;-2.70;99.90;;;;;;4993174;28;20671;-64
2021/01/06 02:06:58;;;;;;;2.33;1.67;;;-2.70;99.90;;;;;;4992928;28;20190;-63
2021/01/06 02:09:30;;;;;;;4.90;2.67;;;-2.60;99.90;;;;;;4993210;28;20395;-62
2021/01/06 02:12:08;;;;;;;5.30;2.83;;;-2.60;99.90;;;;;;4993544;28;20308;-62
2021/01/06 02:14:44;;;;;;;2.77;2.17;;;-2.60;99.90;;;;;;4992789;28;20762;-64
2021/01/06 02:17:13;;;;;;;3.60;2.40;;;-2.60;99.90;;;;;;4992159;28;20268;-62
2021/01/06 02:19:42;;;;;;;3.57;2.20;;;-2.70;99.90;;;;;;4993177;28;20182;-63
2021/01/06 02:22:12;;;;;;;5.60;2.90;;;-2.60;99.90;;;;;;4993112;28;20233;-61
2021/01/06 02:24:39;;;;;;;3.90;2.47;;;-2.60;99.90;;;;;;4992880;28;20226;-61
2021/01/06 02:27:07;;;;;;;4.20;2.27;;;-2.60;99.90;;;;;;4992828;28;20198;-62
2021/01/06 02:29:35;;;;;;;4.30;2.73;;;-2.60;99.90;;;;;;4992710;28;20618;-61
2021/01/06 02:32:02;;;;;;;3.90;2.53;;;-2.60;99.90;;;;;;4992578;28;20244;-63
2021/01/06 02:34:28;;;;;;;4.57;2.80;;;-2.70;99.90;;;;;;4989811;28;20588;-62
2021/01/06 02:36:55;;;;;;;6.03;3.03;;;-2.70;99.90;;;;;;4983791;28;20280;-62
2021/01/06 02:39:22;;;;;;;4.27;2.67;;;-2.80;99.90;;;;;;4992523;28;20236;-62
2021/01/06 02:41:49;;;;;;;5.30;2.97;;;-2.70;99.90;;;;;;4992199;28;20205;-62
2021/01/06 02:44:17;;;;;;;4.67;2.60;;;-2.70;99.90;;;;;;4991932;28;20189;-62
2021/01/06 02:46:45;;;;;;;3.93;2.70;;;-2.70;99.90;;;;;;4992132;28;20629;-62
2021/01/06 02:49:13;;;;;;;3.67;2.20;;;-2.70;99.90;;;;;;4992116;28;20220;-62
2021/01/06 02:51:44;;;;;;;4.23;2.80;;;-2.60;99.90;;;;;;4991991;28;20623;-64
2021/01/06 02:54:14;;;;;;;3.67;2.03;;;-2.70;99.90;;;;;;4991722;28;20292;-62
2021/01/06 02:56:43;;;;;;;3.27;2.37;;;-2.70;99.90;;;;;;4992076;28;20272;-61
2021/01/06 02:59:13;;;;;;;3.93;2.50;;;-2.70;99.90;;;;;;4991730;28;20273;-61
2021/01/06 03:01:42;;;;;;;3.43;2.43;;;-2.70;99.90;;;;;;4991510;28;20182;-61
2021/01/06 03:04:13;;;;;;;5.50;3.47;;;-2.70;99.90;;;;;;4991190;28;20236;-63
2021/01/06 03:06:45;;;;;;;4.70;2.50;;;-2.70;99.90;;;;;;4992043;28;20225;-62
2021/01/06 03:09:28;;;;;;;4.90;3.10;;;-2.60;99.90;;;;;;4991492;28;20228;-62
2021/01/06 03:11:57;;;;;;;5.33;3.43;;;-2.70;99.90;;;;;;4991054;28;20193;-63
2021/01/06 03:14:25;;;;;;;1.83;1.40;;;-2.70;99.90;;;;;;4991464;28;20334;-62
2021/01/06 03:16:52;;;;;;;5.00;3.40;;;-2.60;99.90;;;;;;4991752;28;20310;-61
2021/01/06 03:19:20;;;;;;;4.97;3.37;;;-2.70;99.90;;;;;;4991677;28;20300;-61
2021/01/06 03:21:49;;;;;;;7.07;3.10;;;-2.70;99.90;;;;;;4991786;28;20213;-62
2021/01/06 03:24:17;;;;;;;4.60;3.27;;;-2.60;99.90;;;;;;4991884;28;20287;-63
2021/01/06 03:26:46;;;;;;;6.30;3.30;;;-2.70;99.90;;;;;;4991767;28;20215;-62
2021/01/06 03:29:14;;;;;;;6.43;2.97;;;-2.70;99.90;;;;;;4991381;28;20240;-63
2021/01/06 03:31:44;;;;;;;4.90;3.30;;;-2.70;99.90;;;;;;4991230;28;20225;-63
2021/01/06 03:34:19;;;;;;;6.00;3.00;;;-2.70;99.90;;;;;;4990895;28;20743;-63
2021/01/06 03:36:52;;;;;;;3.87;1.97;;;-2.80;99.90;;;;;;4991529;28;20189;-62
2021/01/06 03:39:25;;;;;;;6.00;3.50;;;-2.70;99.90;;;;;;4991271;28;20190;-62
2021/01/06 03:41:53;;;;;;;5.53;3.50;;;-2.60;99.90;;;;;;4991972;28;20285;-63
2021/01/06 03:44:23;;;;;;;5.97;3.63;;;-2.70;99.90;;;;;;4991713;28;20247;-62
2021/01/06 03:46:58;;;;;;;7.17;3.53;;;-2.70;99.90;;;;;;4991085;28;20296;-62
2021/01/06 03:49:41;;;;;;;8.27;3.50;;;-2.70;99.90;;;;;;4991304;28;20231;-61
2021/01/06 03:52:17;;;;;;;5.53;3.50;;;-2.70;99.90;;;;;;4991448;28;20642;-62
2021/01/06 03:54:54;;;;;;;3.43;2.47;;;-2.60;99.90;;;;;;4991358;28;20217;-62
2021/01/06 03:57:22;;;;;;;4.00;2.40;;;-2.60;99.90;;;;;;4991166;28;20669;-63
2021/01/06 03:59:51;;;;;;;3.50;2.37;;;-2.60;99.90;;;;;;4987396;28;20225;-62
2021/01/06 04:02:21;;;;;;;5.53;3.30;;;-2.50;99.90;;;;;;4974743;28;20229;-61
2021/01/06 04:04:51;;;;;;;5.70;3.50;;;-2.60;99.90;;;;;;4991540;28;20276;-62
2021/01/06 04:07:24;;;;;;;5.27;2.90;;;-2.60;99.90;;;;;;4991233;28;20256;-62
2021/01/06 04:09:55;;;;;;;4.97;3.17;;;-2.60;99.90;;;;;;4987021;28;20612;-63
2021/01/06 04:12:22;;;;;;;6.63;3.77;;;-2.60;99.90;;;;;;4972092;28;20229;-61
2021/01/06 04:14:49;;;;;;;4.70;3.27;;;-2.60;99.90;;;;;;4975763;28;20245;-61
2021/01/06 04:17:23;;;;;;;8.67;4.07;;;-2.60;99.90;;;;;;4992479;28;20206;-62
2021/01/06 04:19:52;;;;;;;4.67;2.67;;;-2.70;99.90;;;;;;4994618;28;20228;-62
2021/01/06 04:22:36;;;;;;;6.33;3.80;;;-2.70;99.90;;;;;;4995256;28;20197;-62
2021/01/06 04:25:03;;;;;;;6.63;4.07;;;-2.80;99.90;;;;;;4987959;28;20589;-62
2021/01/06 04:27:30;;;;;;;6.30;4.10;;;-2.80;99.90;;;;;;4975895;28;20229;-62
2021/01/06 04:29:57;;;;;;;6.30;3.60;;;-2.80;99.90;;;;;;4984424;28;20264;-63
2021/01/06 04:32:30;;;;;;;6.60;3.97;;;-2.80;99.90;;;;;;4995110;28;20281;-63
2021/01/06 04:34:56;;;;;;;5.63;3.43;;;-2.70;99.90;;;;;;4994491;28;20292;-62
2021/01/06 04:37:23;;;;;;;6.10;3.23;;;-2.70;99.90;;;;;;4995505;28;20228;-62
2021/01/06 04:39:49;;;;;;;6.23;3.37;;;-2.60;99.90;;;;;;4994058;28;20528;-61
2021/01/06 04:42:17;;;;;;;5.47;3.17;;;-2.60;99.90;;;;;;4994616;28;20284;-62
2021/01/06 04:44:55;;;;;;;4.97;3.07;;;-2.50;99.90;;;;;;4995012;28;20292;-61
2021/01/06 04:47:51;;;;;;;7.37;3.63;;;-2.50;99.90;;;;;;4994706;28;20273;-62
2021/01/06 04:50:45;;;;;;;6.40;4.20;;;-2.50;99.90;;;;;;4975916;28;20693;-63
2021/01/06 04:53:25;;;;;;;4.93;2.70;;;-2.50;99.90;;;;;;4974956;28;20241;-62
2021/01/06 04:56:00;;;;;;;5.47;3.87;;;-2.50;99.90;;;;;;4975244;28;20226;-63
2021/01/06 04:58:35;;;;;;;5.27;2.80;;;-2.40;99.90;;;;;;4956425;29;20554;-62
2021/01/06 05:01:20;;;;;;;6.30;4.07;;;-2.40;99.90;;;;;;4972515;28;20707;-64
2021/01/06 05:04:11;;;;;;;5.83;3.73;;;-2.40;99.90;;;;;;4975491;28;20199;-63
2021/01/06 05:06:52;;;;;;;5.60;3.30;;;-2.40;99.90;;;;;;4974174;28;20576;-63
2021/01/06 05:09:22;;;;;;;6.23;4.00;;;-2.30;99.90;;;;;;4974334;28;20226;-63
2021/01/06 05:12:02;;;;;;;5.10;3.00;;;-2.30;99.90;;;;;;4975078;28;20218;-64
2021/01/06 05:14:33;;;;;;;5.37;2.90;;;-2.30;99.90;;;;;;4974831;28;20253;-63
2021/01/06 05:17:01;;;;;;;6.73;3.90;;;-2.20;99.90;;;;;;4955519;28;20184;-61
2021/01/06 05:19:31;;;;;;;4.27;2.27;;;-2.30;99.90;;;;;;4955026;29;20709;-63
2021/01/06 05:21:58;;;;;;;5.00;3.17;;;-2.20;99.90;;;;;;4974547;28;20274;-63
2021/01/06 05:24:31;;;;;;;5.47;3.50;;;-2.20;99.90;;;;;;4970564;28;20564;-63
2021/01/06 05:27:15;;;;;;;4.73;3.00;;;-2.20;99.90;;;;;;4954933;29;20230;-64
2021/01/06 05:29:42;;;;;;;6.07;3.43;;;-2.20;99.90;;;;;;4955800;28;20667;-64
2021/01/06 05:32:17;;;;;;;6.20;4.00;;;-2.20;99.90;;;;;;4973980;28;20205;-63
2021/01/06 05:34:47;;;;;;;3.60;2.40;;;-2.10;99.90;;;;;;4973814;28;20634;-62
2021/01/06 05:37:16;;;;;;;5.40;3.07;;;-2.10;99.90;;;;;;4973883;28;20285;-63
2021/01/06 05:39:43;;;;;;;8.20;3.93;;;-2.20;99.90;;;;;;4973877;28;20187;-64
2021/01/06 05:42:11;;;;;;;7.17;4.23;;;-2.20;99.90;;;;;;4968941;28;20194;-62
2021/01/06 05:44:38;;;;;;;6.33;3.60;;;-2.20;99.90;;;;;;4955132;29;20289;-62
2021/01/06 05:47:14;;;;;;;6.70;3.70;;;-2.20;99.90;;;;;;4954975;29;20305;-62
2021/01/06 05:49:40;;;;;;;6.37;3.73;;;-2.20;99.90;;;;;;4954540;28;20265;-63
2021/01/06 05:52:11;;;;;;;5.83;3.57;;;-2.20;99.90;;;;;;4974041;28;20550;-62
2021/01/06 05:54:43;;;;;;;6.87;3.57;;;-2.20;99.90;;;;;;4973685;28;20341;-62
2021/01/06 05:57:20;;;;;;;7.30;4.00;;;-2.20;99.90;;;;;;4984307;28;20668;-62
2021/01/06 06:00:16;;;;;;;3.17;2.33;;;-2.20;99.90;;;;;;4993347;28;20220;-61
2021/01/06 06:02:51;;;;;;;4.40;3.17;;;-2.10;99.90;;;;;;4988300;28;20233;-62
2021/01/06 06:05:35;;;;;;;7.70;3.70;;;-2.10;99.90;;;;;;4973678;28;20276;-63
2021/01/06 06:08:24;;;;;;;7.27;3.40;;;-2.10;99.90;;;;;;4982720;28;20209;-63
2021/01/06 06:11:04;;;;;;;6.47;3.40;;;-2.10;99.90;;;;;;4993213;28;20189;-62
2021/01/06 06:13:57;;;;;;;5.30;3.27;;;-2.10;99.90;;;;;;4993396;28;20201;-64
2021/01/06 06:16:46;;;;;;;5.57;3.30;;;-2.10;99.90;;;;;;4981509;28;20572;-62
2021/01/06 06:19:39;;;;;;;4.83;3.20;;;-2.10;99.90;;;;;;4986039;28;20193;-64
2021/01/06 06:22:15;;;;;;;5.27;3.63;;;-2.10;99.90;;;;;;4988084;28;20225;-63
2021/01/06 06:24:50;;;;;;;6.80;3.43;;;-2.20;99.90;;;;;;4992685;28;20197;-62
2021/01/06 06:27:35;;;;;;;5.20;2.87;;;-2.20;99.90;;;;;;4992708;28;20631;-63
2021/01/06 06:30:22;;;;;;;4.07;2.60;;;-2.20;99.90;;;;;;4992796;28;20640;-63
2021/01/06 06:32:51;;;;;;;5.90;3.10;;;-2.10;99.90;;;;;;4991874;28;20687;-70
2021/01/06 06:35:22;;;;;;;2.10;1.13;;;-2.10;99.90;;;;;;4992947;28;20218;-64
2021/01/06 06:37:54;;;;;;;4.43;2.93;;;-2.20;99.90;;;;;;4989261;28;20600;-61
2021/01/06 06:40:22;;;;;;;3.63;2.27;;;-2.20;99.90;;;;;;4992065;28;20224;-61
2021/01/06 06:42:57;;;;;;;3.47;2.23;;;-2.20;99.90;;;;;;4992423;28;20233;-62
2021/01/06 06:45:51;;;;;;;6.40;3.13;;;-2.20;99.90;;;;;;4991771;28;20185;-63
2021/01/06 06:48:36;;;;;;;4.63;3.23;;;-2.10;99.90;;;;;;4979275;28;20198;-62
2021/01/06 06:51:15;;;;;;;5.30;3.17;;;-2.10;99.90;;;;;;4992480;28;20327;-65
2021/01/06 06:53:49;;;;;;;5.13;2.83;;;-2.10;99.90;;;;;;4992675;28;20218;-64
2021/01/06 06:56:27;;;;;;;4.13;2.93;;;-2.10;99.90;;;;;;4973187;28;20267;-63
2021/01/06 06:58:59;;;;;;;4.63;3.10;;;-2.00;99.90;;;;;;4974075;28;20289;-65
2021/01/06 07:01:33;;;;;;;6.27;3.60;;;-2.10;99.90;;;;;;4992119;28;20205;-63
2021/01/06 07:04:02;;;;;;;5.13;3.40;;;-2.10;99.90;;;;;;4992632;28;20273;-63
2021/01/06 07:06:29;;;;;;;5.23;2.93;;;-2.10;99.90;;;;;;4992347;28;20652;-63
2021/01/06 07:08:59;;;;;;;5.97;3.37;;;-2.10;99.90;;;;;;4992902;28;20224;-64
2021/01/06 07:11:33;;;;;;;5.07;3.30;;;-2.10;99.90;;;;;;4992274;28;20611;-64
2021/01/06 07:14:05;;;;;;;5.97;3.60;;;-2.10;99.90;;;;;;4992247;28;20216;-63
2021/01/06 07:16:35;;;;;;;4.07;2.90;;;-2.10;99.90;;;;;;4972894;28;20222;-62
2021/01/06 07:19:24;;;;;;;4.70;3.50;;;-2.10;99.90;;;;;;4972598;28;20700;-63
2021/01/06 07:21:57;;;;;;;5.13;3.67;;;-2.10;99.90;;;;;;4978212;28;20647;-62
2021/01/06 07:24:25;;;;;;;6.63;3.50;;;-2.10;99.90;;;;;;4992398;28;20232;-64
2021/01/06 07:26:59;;;;;;;3.53;2.77;;;-2.00;99.90;;;;;;4991937;28;20200;-66
2021/01/06 07:29:32;;;;;;;5.93;3.10;;;-2.10;99.90;;;;;;4980321;28;20245;-63
2021/01/06 07:32:02;;;;;;;5.47;3.17;;;-2.00;99.90;;;;;;4979492;28;20213;-64
2021/01/06 07:34:42;;;;;;;7.47;3.70;;;-2.10;99.90;;;;;;4991741;28;20233;-63
2021/01/06 07:37:25;;;;;;;6.97;3.70;;;-2.10;99.90;;;;;;4992460;28;20196;-63
2021/01/06 07:39:58;;;;;;;4.70;3.37;;;-2.10;99.90;;;;;;4991650;28;20632;-64
2021/01/06 07:42:35;;;;;;;5.03;3.27;;;-2.10;99.90;;;;;;4991136;28;20192;-64
2021/01/06 07:45:29;;;;;;;5.00;3.50;;;-2.10;99.90;;;;;;4992000;28;20279;-61
2021/01/06 07:48:17;;;;;;;4.20;2.07;;;-2.10;99.90;;;;;;4992591;28;20229;-63
2021/01/06 07:50:49;;;;;;;5.37;2.77;;;-2.10;99.90;;;;;;4959485;28;20304;-64
2021/01/06 07:53:19;;;;;;;4.87;2.33;;;-2.10;99.90;;;;;;4995011;28;20655;-63
2021/01/06 07:55:56;;;;;;;4.57;3.30;;;-2.10;99.90;;;;;;4994830;28;20309;-62
2021/01/06 07:58:32;;;;;;;6.50;3.17;;;-2.10;99.90;;;;;;4992332;28;20251;-64
2021/01/06 08:01:05;;;;;;;5.83;3.57;;;-2.10;99.90;;;;;;4995767;28;20340;-63
2021/01/06 08:03:45;;;;;;;2.67;1.90;;;-2.10;99.90;;;;;;4996240;28;20186;-64
2021/01/06 08:06:11;;;;;;;5.30;3.47;;;-2.00;99.90;;;;;;4994667;28;20279;-65
2021/01/06 08:08:44;;;;;;;5.13;3.50;;;-2.00;99.90;;;;;;4995463;28;20269;-62
2021/01/06 08:11:13;;;;;;;5.10;3.43;;;-2.10;99.90;;;;;;4995184;28;20499;-64
2021/01/06 08:13:57;;;;;;;4.90;3.40;;;-2.00;99.90;;;;;;4996027;28;20256;-65
2021/01/06 08:16:33;;;;;;;6.40;3.73;;;-2.00;99.90;;;;;;4995463;28;20218;-64
2021/01/06 08:19:15;;;;;;;4.33;2.90;;;-2.00;99.90;;;;;;4989796;28;20217;-63
2021/01/06 08:21:52;;;;;;;4.07;2.80;;;-2.00;99.90;;;;;;4976380;28;20222;-63
2021/01/06 08:24:31;;;;;;;6.53;3.70;;;-2.00;99.90;;;;;;4990726;28;20283;-63
2021/01/06 08:26:59;;;;;;;6.63;3.50;;;-2.00;99.90;;;;;;4994585;28;20217;-62
2021/01/06 08:29:28;;;;;;;3.10;2.53;;;-2.00;99.90;;;;;;4995647;28;20197;-64
2021/01/06 08:31:59;;;;;;;5.57;3.07;;;-2.00;99.90;;;;;;4995279;28;20221;-63
2021/01/06 08:34:28;;;;;;;7.43;2.90;;;-2.00;99.90;;;;;;4995046;28;20206;-63
2021/01/06 08:37:02;;;;;;;5.60;3.50;;;-1.90;99.90;;;;;;4985597;28;20229;-62
2021/01/06 08:39:31;;;;;;;6.87;3.70;;;-1.90;99.90;;;;;;4991717;28;20269;-64
2021/01/06 08:42:09;;;;;;;6.60;3.50;;;-1.80;99.90;;;;;;4994692;28;20284;-62
2021/01/06 08:44:41;;;;;;;2.70;2.13;;;-1.90;99.90;;;;;;4980574;28;20269;-63
2021/01/06 08:47:12;;;;;;;4.87;3.37;;;-1.80;99.90;;;;;;4994846;28;20207;-63
2021/01/06 08:49:40;;;;;;;5.90;3.30;;;-1.80;99.90;;;;;;4994201;28;20206;-64
2021/01/06 08:52:20;;;;;;;4.40;2.90;;;-1.80;99.90;;;;;;4994581;28;20283;-63
2021/01/06 08:54:57;;;;;;;5.80;3.50;;;-1.80;99.90;;;;;;4994340;28;20248;-64
2021/01/06 08:57:27;;;;;;;7.10;3.90;;;-1.80;99.90;;;;;;4993604;28;20639;-63
2021/01/06 09:00:21;;;;;;;8.60;3.87;;;-1.70;99.90;;;;;;4995128;28;20217;-67
2021/01/06 09:02:51;;;;;;;5.63;4.03;;;-1.70;99.90;;;;;;4994198;28;20277;-64
2021/01/06 09:05:53;;;;;;;6.17;3.60;;;-1.70;99.90;;;;;;4994597;28;20229;-62
2021/01/06 09:08:21;;;;;;;11.63;3.97;;;-1.60;99.90;;;;;;4994036;28;20199;-64
2021/01/06 09:11:04;;;;;;;6.83;3.30;;;-1.60;99.90;;;;;;4993269;28;20236;-64
2021/01/06 09:13:36;;;;;;;4.30;3.20;;;-1.60;99.90;;;;;;4994080;28;20613;-62
2021/01/06 09:16:09;;;;;;;6.50;3.63;;;-1.60;99.90;;;;;;4993791;28;20699;-63
2021/01/06 09:18:40;;;;;;;6.97;3.97;;;-1.60;99.90;;;;;;4993478;28;20273;-64
2021/01/06 09:21:13;;;;;;;5.47;3.70;;;-1.60;99.90;;;;;;4994165;28;20185;-63
2021/01/06 09:23:43;;;;;;;7.80;3.93;;;-1.50;99.90;;;;;;4994543;28;20221;-62
2021/01/06 09:26:14;;;;;;;5.13;3.57;;;-1.50;99.90;;;;;;4992247;28;20242;-66
2021/01/06 09:28:42;;;;;;;5.77;3.50;;;-1.50;99.90;;;;;;4992548;28;20236;-62
2021/01/06 09:31:12;;;;;;;3.40;2.63;;;-1.50;99.90;;;;;;4993514;28;20284;-66
2021/01/06 09:33:40;;;;;;;5.17;3.47;;;-1.50;99.90;;;;;;4988398;28;20260;-63
2021/01/06 09:36:08;;;;;;;3.53;2.43;;;-1.40;99.90;;;;;;4993588;28;20225;-65
2021/01/06 09:38:41;;;;;;;4.43;3.33;;;-1.50;99.90;;;;;;4993788;28;20308;-62
2021/01/06 09:41:11;;;;;;;5.40;3.27;;;-1.40;99.90;;;;;;4993420;28;20209;-64
2021/01/06 09:43:40;;;;;;;5.27;3.63;;;-1.40;99.90;;;;;;4993263;28;20280;-65
2021/01/06 09:46:15;;;;;;;3.60;2.37;;;-1.40;99.90;;;;;;4989112;28;20565;-63
2021/01/06 09:48:44;;;;;;;7.10;3.70;;;-1.40;99.90;;;;;;4994079;28;20239;-65
2021/01/06 09:51:13;;;;;;;4.53;3.03;;;-1.40;99.90;;;;;;4992573;28;20248;-64
2021/01/06 09:53:39;;;;;;;5.63;3.77;;;-1.40;99.90;;;;;;4993623;28;20232;-63
2021/01/06 09:56:06;;;;;;;7.27;3.43;;;-1.40;99.90;;;;;;4989229;28;20316;-64
2021/01/06 09:58:37;;;;;;;7.03;4.07;;;-1.30;99.90;;;;;;4993515;28;20269;-63
2021/01/06 10:01:15;;;;;;;4.73;3.17;;;-1.40;99.90;;;;;;4986608;28;20565;-64
2021/01/06 10:03:44;;;;;;;6.07;4.13;;;-1.40;99.90;;;;;;4994091;28;20217;-64
2021/01/06 10:06:34;;;;;;;5.80;3.67;;;-1.40;99.90;;;;;;4981545;28;20277;-62
2021/01/06 10:09:08;;;;;;;6.07;4.13;;;-1.30;99.90;;;;;;4991702;28;20648;-64
2021/01/06 10:11:48;;;;;;;6.80;3.17;;;-1.30;99.90;;;;;;4993767;28;20217;-63
2021/01/06 10:14:34;;;;;;;5.03;3.57;;;-1.30;99.90;;;;;;4993228;28;20244;-62
2021/01/06 10:17:05;;;;;;;7.97;4.07;;;-1.20;99.90;;;;;;4994119;28;20225;-64
2021/01/06 10:19:48;;;;;;;5.47;3.40;;;-1.20;99.90;;;;;;4993475;28;20186;-64
2021/01/06 10:22:31;;;;;;;6.87;3.43;;;-1.20;99.90;;;;;;4993556;28;20631;-64
2021/01/06 10:25:20;;;;;;;6.30;3.87;;;-1.20;99.90;;;;;;4993416;28;20200;-61
2021/01/06 10:27:57;;;;;;;5.63;3.40;;;-1.20;99.90;;;;;;4989667;28;20216;-64
2021/01/06 10:30:26;;;;;;;6.33;4.30;;;-1.10;99.90;;;;;;4991124;28;20228;-63
2021/01/06 10:33:16;;;;;;;5.53;3.27;;;-1.10;99.90;;;;;;4992466;28;20573;-63
2021/01/06 10:35:47;;;;;;;9.07;4.60;;;-1.10;99.90;;;;;;4989040;28;20241;-63
2021/01/06 10:38:26;;;;;;;5.83;4.07;;;-1.10;99.90;;;;;;4992986;28;20629;-64
2021/01/06 10:40:56;;;;;;;7.37;3.97;;;-1.10;99.90;;;;;;4979812;28;20197;-65
2021/01/06 10:43:36;;;;;;;9.07;4.37;;;-1.10;99.90;;;;;;4993164;28;20197;-63
2021/01/06 10:46:23;;;;;;;8.00;4.87;;;-1.10;99.90;;;;;;4991601;28;20224;-62
2021/01/06 10:48:51;;;;;;;8.10;4.53;;;-1.10;99.90;;;;;;4988255;28;20282;-64
2021/01/06 10:52:02;;;;;;;8.93;5.03;;;-1.10;99.90;;;;;;4989453;28;20695;-64
2021/01/06 10:54:36;;;;;;;6.77;4.00;;;-1.00;99.90;;;;;;4990548;28;20206;-64
2021/01/06 10:57:19;;;;;;;6.63;4.53;;;-1.00;99.90;;;;;;4991351;28;20926;-64
2021/01/06 11:00:18;;;;;;;8.60;4.57;;;-1.00;99.90;;;;;;4992612;28;20276;-64
2021/01/06 11:03:08;;;;;;;5.73;4.03;;;-1.00;99.90;;;;;;4984112;28;20225;-65
2021/01/06 11:05:39;;;;;;;7.30;4.20;;;-1.00;99.90;;;;;;4990016;28;20237;-64
2021/01/06 11:08:59;;;;;;;7.20;4.33;;;-0.90;99.90;;;;;;4992310;28;20289;-68
2021/01/06 11:11:37;;;;;;;7.40;4.40;;;-1.00;99.90;;;;;;4988756;28;20248;-62
2021/01/06 11:14:26;;;;;;;8.47;4.73;;;-0.90;99.90;;;;;;4990398;28;20193;-64
2021/01/06 11:16:56;;;;;;;9.00;4.77;;;-0.90;99.90;;;;;;4991420;28;20269;-64
2021/01/06 11:19:46;;;;;;;7.53;4.60;;;-0.80;99.90;;;;;;4992347;28;20555;-63
2021/01/06 11:22:28;;;;;;;5.33;3.60;;;-0.80;99.90;;;;;;4992410;28;20232;-66
2021/01/06 11:25:00;;;;;;;6.60;3.77;;;-0.80;99.90;;;;;;4993048;28;20272;-66
2021/01/06 11:27:40;;;;;;;7.37;4.13;;;-0.80;99.90;;;;;;4992210;28;20229;-65
2021/01/06 11:30:24;;;;;;;4.67;3.37;;;-0.80;99.90;;;;;;4991126;28;20268;-65
2021/01/06 11:33:25;;;;;;;5.43;3.17;;;-0.80;99.90;;;;;;4991587;28;20687;-62
2021/01/06 11:35:55;;;;;;;6.27;3.73;;;-0.80;99.90;;;;;;4992833;28;20217;-66
2021/01/06 11:38:48;;;;;;;5.47;3.60;;;-0.80;99.90;;;;;;4992697;28;20240;-63
2021/01/06 11:41:19;;;;;;;6.20;3.37;;;-0.70;99.90;;;;;;4986613;28;20668;-63
2021/01/06 11:44:08;;;;;;;5.80;3.27;;;-0.70;99.90;;;;;;4972816;28;20187;-65
2021/01/06 11:46:46;;;;;;;3.83;2.87;;;-0.70;99.90;;;;;;4988472;28;20272;-64
2021/01/06 11:49:32;;;;;;;7.03;3.23;;;-0.70;99.90;;;;;;4991513;28;20588;-64
2021/01/06 11:52:21;;;;;;;5.30;3.63;;;-0.70;99.90;;;;;;4992138;28;20224;-65
2021/01/06 11:54:51;;;;;;;6.10;3.27;;;-0.70;99.90;;;;;;4992544;28;20225;-66
2021/01/06 11:57:26;;;;;;;8.00;4.00;;;-0.60;99.90;;;;;;4992554;28;20667;-65
2021/01/06 12:00:05;;;;;;;9.03;4.13;;;-0.60;99.90;;;;;;4992263;28;20615;-64
2021/01/06 12:02:37;;;;;;;3.87;2.60;;;-0.60;99.90;;;;;;4992182;28;20219;-62
2021/01/06 12:05:15;;;;;;;7.23;4.10;;;-0.60;99.90;;;;;;4992695;28;20225;-63
2021/01/06 12:08:02;;;;;;;6.03;3.60;;;-0.50;99.90;;;;;;4992240;28;20221;-63
2021/01/06 12:10:34;;;;;;;7.40;3.80;;;-0.50;99.90;;;;;;4992368;28;20272;-64
2021/01/06 12:13:16;;;;;;;6.67;3.93;;;-0.50;99.90;;;;;;4992889;28;20204;-65
2021/01/06 12:15:54;;;;;;;7.50;3.33;;;-0.50;99.90;;;;;;4992291;28;20632;-63
2021/01/06 12:18:47;;;;;;;6.53;3.80;;;-0.50;99.90;;;;;;4992274;28;20243;-63
2021/01/06 12:21:42;;;;;;;5.87;3.60;;;-0.50;99.90;;;;;;4992969;28;20205;-63
2021/01/06 12:24:21;;;;;;;3.83;2.37;;;-0.50;99.90;;;;;;4972744;28;20229;-64
2021/01/06 12:26:54;;;;;;;6.63;3.50;;;-0.40;99.90;;;;;;4972853;28;20190;-62
2021/01/06 12:29:25;;;;;;;5.43;3.60;;;-0.40;99.90;;;;;;4972603;28;20233;-64
2021/01/06 12:31:58;;;;;;;7.20;4.03;;;-0.40;99.90;;;;;;4972445;28;20654;-64
2021/01/06 12:34:34;;;;;;;7.23;4.30;;;-0.40;99.90;;;;;;4972658;28;20652;-64
2021/01/06 12:37:23;;;;;;;5.80;4.10;;;-0.40;99.90;;;;;;4972832;28;20240;-63
2021/01/06 12:40:07;;;;;;;5.33;3.50;;;-0.40;99.90;;;;;;4975854;28;20237;-64
2021/01/06 12:42:40;;;;;;;6.13;3.53;;;-0.40;99.90;;;;;;4975858;28;20190;-62
2021/01/06 12:45:19;;;;;;;4.83;3.00;;;-0.40;99.90;;;;;;4976381;28;20277;-66
2021/01/06 12:47:54;;;;;;;5.87;3.47;;;-0.40;99.90;;;;;;4976389;28;20298;-63
2021/01/06 12:50:26;;;;;;;6.80;3.90;;;-0.40;99.90;;;;;;4976334;28;20229;-65
2021/01/06 12:52:56;;;;;;;6.73;3.90;;;-0.40;99.90;;;;;;4975638;28;20218;-64
2021/01/06 12:55:31;;;;;;;7.20;3.70;;;-0.30;99.90;;;;;;4975913;28;20315;-64
2021/01/06 12:58:08;;;;;;;5.90;3.70;;;-0.40;99.90;;;;;;4976117;28;20313;-65
2021/01/06 13:00:39;;;;;;;5.97;3.60;;;-0.40;99.90;;;;;;4976065;28;20236;-62
2021/01/06 13:03:27;;;;;;;8.03;3.70;;;-0.30;99.90;;;;;;4975926;28;20198;-63
2021/01/06 13:05:59;;;;;;;5.53;3.67;;;-0.30;99.90;;;;;;4964443;28;20312;-63
2021/01/06 13:08:33;;;;;;;5.70;3.73;;;-0.30;99.90;;;;;;4975396;28;20226;-63
2021/01/06 13:11:13;;;;;;;8.20;3.70;;;-0.30;99.90;;;;;;4975953;28;20272;-65
2021/01/06 13:13:41;;;;;;;5.17;3.60;;;-0.30;99.90;;;;;;4975999;28;20217;-64
2021/01/06 13:16:36;;;;;;;8.20;4.20;;;-0.30;99.90;;;;;;4975558;28;20276;-65
2021/01/06 13:19:35;;;;;;;9.13;3.57;;;-0.30;99.90;;;;;;4987727;28;20211;-65
2021/01/06 13:22:25;;;;;;;5.00;3.03;;;-0.30;99.90;;;;;;4990859;28;20195;-65
2021/01/06 13:25:06;;;;;;;4.10;3.07;;;-0.30;99.90;;;;;;4974949;28;20186;-63